Newark Valley, New York
Current Conditions -  °F | °C
As of 10:53 PM on Monday 20 Oct 2014 (Local Time) from KBGM Reporting Station
Overcast Overcast  
Wind Chill: 47°   Ceiling: 10000
Heat Index: 49°   Visibility: 10mi
Dew Point: 36°   Wind: 6mph
Humidity: 61%   Direction: 190°S
Pressure: 29.89"   Gusts: NA
Location:  42.22°N, 76.18°W
Report Text: KBGM 210253Z 19005KT 10SM OVC100 09/02 A2989 RMK AO2 SLP127 T00940022 58004
Loading
Personal Weather Stations






























Interactive Weather Map
Tropical Storm Tracking
New forecast layout! Learn more

10-Day Weather Forecast

Advertisements
Track Severe Weather on mobile